createdAt,value
2023-02-16T00:02:05.577Z,100791.60
2023-02-16T00:32:33.795Z,100801.85
2023-02-16T00:35:58.741Z,100799.63
2023-02-16T00:42:28.423Z,100801.52
2023-02-16T00:44:42.244Z,100803.27
2023-02-16T01:26:51.735Z,100817.98
2023-02-16T02:37:43.449Z,100861.53
2023-02-16T04:51:38.814Z,100949.57
2023-02-16T04:54:43.149Z,100953.50
2023-02-16T04:57:31.477Z,100952.35
2023-02-16T05:01:08.060Z,100954.17
2023-02-16T21:47:29.791Z,101012.42
2023-02-16T22:00:04.540Z,101006.29
2023-02-16T22:02:34.585Z,101002.99
2023-02-16T22:10:11.400Z,100999.89
2023-02-16T22:17:08.997Z,101011.27
2023-02-16T22:19:39.655Z,101005.36
2023-02-16T22:25:27.188Z,100996.91
2023-02-16T22:27:56.197Z,100990.55
2023-02-16T22:30:24.531Z,100995.88
2023-02-16T22:33:22.378Z,100993.35
2023-02-16T22:36:09.461Z,100992.73
2023-02-16T22:38:46.979Z,100991.84
2023-02-16T22:41:16.766Z,101000.52
2023-02-16T22:43:47.302Z,100999.32
2023-02-16T22:46:27.764Z,100997.33
2023-02-16T22:49:01.629Z,100997.80
2023-02-16T22:51:49.178Z,100996.05
2023-02-16T22:54:17.425Z,100995.09
2023-02-16T22:56:52.378Z,100997.21
2023-02-16T22:59:24.394Z,100994.52
2023-02-16T23:01:59.554Z,100999.05
2023-02-16T23:04:35.254Z,100994.85
2023-02-16T23:07:05.781Z,100991.23
2023-02-16T23:09:39.396Z,100993.23
2023-02-16T23:12:11.957Z,100996.36
2023-02-16T23:14:40.542Z,101000.70
2023-02-16T23:17:09.397Z,101002.81
2023-02-16T23:19:42.924Z,101004.71
2023-02-16T23:22:13.222Z,101003.41
2023-02-16T23:24:42.066Z,101004.29
2023-02-16T23:27:10.636Z,100999.48
2023-02-16T23:29:41.247Z,100999.08
2023-02-16T23:32:11.116Z,100996.92
2023-02-16T23:34:48.078Z,100994.59
2023-02-16T23:37:16.460Z,100991.27
2023-02-16T23:39:45.444Z,100992.11
2023-02-16T23:42:15.699Z,100991.02
2023-02-16T23:44:44.324Z,100984.90
2023-02-16T23:47:20.902Z,100984.37
2023-02-16T23:49:49.581Z,100975.35
2023-02-16T23:52:19.370Z,100971.95
2023-02-16T23:54:50.136Z,100973.60
2023-02-16T23:57:21.055Z,100977.35
2023-02-16T23:59:49.516Z,100978.45
